sensor_id;sensor_type;location;lat;lon;timestamp;pressure;altitude;pressure_sealevel;temperature;humidity
46408;BME280;32110;45.724;21.276;2023-04-26T00:01:24;99737.97;;;8.28;nan
46408;BME280;32110;45.724;21.276;2023-04-26T00:03:51;99736.97;;;8.29;nan
46408;BME280;32110;45.724;21.276;2023-04-26T00:06:17;99724.41;;;8.19;nan
46408;BME280;32110;45.724;21.276;2023-04-26T00:08:42;99729.41;;;8.21;nan
46408;BME280;32110;45.724;21.276;2023-04-26T00:11:08;99727.34;;;8.11;nan
46408;BME280;32110;45.724;21.276;2023-04-26T00:13:33;99745.25;;;8.14;nan
46408;BME280;32110;45.724;21.276;2023-04-26T00:15:59;99744.09;;;8.10;nan
46408;BME280;32110;45.724;21.276;2023-04-26T00:18:24;99751.50;;;8.13;nan
46408;BME280;32110;45.724;21.276;2023-04-26T00:20:49;99749.94;;;8.12;nan
46408;BME280;32110;45.724;21.276;2023-04-26T00:23:15;99741.47;;;8.10;nan
46408;BME280;32110;45.724;21.276;2023-04-26T00:25:41;99756.19;;;8.11;nan
46408;BME280;32110;45.724;21.276;2023-04-26T00:28:06;99742.50;;;8.09;nan
46408;BME280;32110;45.724;21.276;2023-04-26T00:30:34;99735.28;;;8.04;nan
46408;BME280;32110;45.724;21.276;2023-04-26T00:33:02;99750.94;;;8.11;nan
46408;BME280;32110;45.724;21.276;2023-04-26T00:35:27;99743.03;;;7.99;nan
46408;BME280;32110;45.724;21.276;2023-04-26T00:37:53;99756.63;;;8.08;nan
46408;BME280;32110;45.724;21.276;2023-04-26T00:40:18;99748.84;;;8.01;nan
46408;BME280;32110;45.724;21.276;2023-04-26T00:42:44;99756.19;;;8.11;nan
46408;BME280;32110;45.724;21.276;2023-04-26T00:45:10;99744.66;;;8.00;nan
46408;BME280;32110;45.724;21.276;2023-04-26T00:47:35;99724.66;;;7.87;nan
46408;BME280;32110;45.724;21.276;2023-04-26T00:50:01;99759.47;;;8.06;nan
46408;BME280;32110;45.724;21.276;2023-04-26T00:52:28;99733.09;;;7.89;nan
46408;BME280;32110;45.724;21.276;2023-04-26T00:54:55;99740.75;;;7.91;nan
46408;BME280;32110;45.724;21.276;2023-04-26T00:57:21;99744.28;;;7.97;nan
46408;BME280;32110;45.724;21.276;2023-04-26T00:59:46;99696.31;;;7.66;nan
46408;BME280;32110;45.724;21.276;2023-04-26T01:02:12;99751.28;;;8.03;nan
46408;BME280;32110;45.724;21.276;2023-04-26T01:04:37;99743.69;;;7.95;nan
46408;BME280;32110;45.724;21.276;2023-04-26T01:07:06;99736.00;;;8.00;nan
46408;BME280;32110;45.724;21.276;2023-04-26T01:09:32;99746.81;;;8.03;nan
46408;BME280;32110;45.724;21.276;2023-04-26T01:11:58;99752.97;;;8.09;nan
46408;BME280;32110;45.724;21.276;2023-04-26T01:14:24;99731.88;;;8.04;nan
46408;BME280;32110;45.724;21.276;2023-04-26T01:16:51;99734.06;;;8.07;nan
46408;BME280;32110;45.724;21.276;2023-04-26T01:19:16;99741.81;;;8.14;nan
46408;BME280;32110;45.724;21.276;2023-04-26T01:21:42;99729.97;;;8.11;nan
46408;BME280;32110;45.724;21.276;2023-04-26T01:24:12;99747.88;;;8.26;nan
46408;BME280;32110;45.724;21.276;2023-04-26T01:26:38;99736.44;;;8.08;nan
46408;BME280;32110;45.724;21.276;2023-04-26T01:29:17;99750.38;;;8.21;nan
46408;BME280;32110;45.724;21.276;2023-04-26T01:31:43;99743.09;;;8.23;nan
46408;BME280;32110;45.724;21.276;2023-04-26T01:34:08;99731.56;;;8.12;nan
46408;BME280;32110;45.724;21.276;2023-04-26T01:36:34;99733.63;;;8.10;nan
46408;BME280;32110;45.724;21.276;2023-04-26T01:38:59;99733.16;;;8.13;nan
46408;BME280;32110;45.724;21.276;2023-04-26T01:41:25;99730.91;;;8.17;nan
46408;BME280;32110;45.724;21.276;2023-04-26T01:43:50;99744.94;;;8.22;nan
46408;BME280;32110;45.724;21.276;2023-04-26T01:46:16;99747.19;;;8.19;nan
46408;BME280;32110;45.724;21.276;2023-04-26T01:48:41;99741.25;;;8.12;nan
46408;BME280;32110;45.724;21.276;2023-04-26T01:51:06;99744.56;;;8.19;nan
46408;BME280;32110;45.724;21.276;2023-04-26T01:53:32;99749.13;;;8.23;nan
46408;BME280;32110;45.724;21.276;2023-04-26T01:56:01;99753.13;;;8.26;nan
46408;BME280;32110;45.724;21.276;2023-04-26T01:58:27;99735.31;;;8.16;nan
46408;BME280;32110;45.724;21.276;2023-04-26T02:00:52;99752.59;;;8.24;nan
46408;BME280;32110;45.724;21.276;2023-04-26T02:03:18;99762.25;;;8.23;nan
46408;BME280;32110;45.724;21.276;2023-04-26T02:05:43;99750.94;;;8.11;nan
46408;BME280;32110;45.724;21.276;2023-04-26T02:08:08;99764.75;;;8.18;nan
46408;BME280;32110;45.724;21.276;2023-04-26T02:10:34;99747.81;;;7.91;nan
46408;BME280;32110;45.724;21.276;2023-04-26T02:12:59;99740.38;;;7.87;nan
46408;BME280;32110;45.724;21.276;2023-04-26T02:15:25;99764.97;;;8.05;nan
46408;BME280;32110;45.724;21.276;2023-04-26T02:17:50;99743.56;;;7.89;nan
46408;BME280;32110;45.724;21.276;2023-04-26T02:20:18;99763.44;;;7.97;nan
46408;BME280;32110;45.724;21.276;2023-04-26T02:22:43;99742.88;;;7.82;nan
46408;BME280;32110;45.724;21.276;2023-04-26T02:25:08;99758.84;;;7.81;nan
46408;BME280;32110;45.724;21.276;2023-04-26T02:27:35;99767.50;;;7.81;nan
46408;BME280;32110;45.724;21.276;2023-04-26T02:30:01;99760.75;;;7.74;nan
46408;BME280;32110;45.724;21.276;2023-04-26T02:32:26;99759.38;;;7.71;nan
46408;BME280;32110;45.724;21.276;2023-04-26T02:34:51;99774.56;;;7.81;nan
46408;BME280;32110;45.724;21.276;2023-04-26T02:37:17;99775.81;;;7.78;nan
46408;BME280;32110;45.724;21.276;2023-04-26T02:39:42;99768.59;;;7.74;nan
46408;BME280;32110;45.724;21.276;2023-04-26T02:42:08;99781.25;;;7.77;nan
46408;BME280;32110;45.724;21.276;2023-04-26T02:44:34;99759.06;;;7.61;nan
46408;BME280;32110;45.724;21.276;2023-04-26T02:47:00;99779.75;;;7.69;nan
46408;BME280;32110;45.724;21.276;2023-04-26T02:49:26;99794.16;;;7.78;nan
46408;BME280;32110;45.724;21.276;2023-04-26T02:51:51;99791.38;;;7.73;nan
46408;BME280;32110;45.724;21.276;2023-04-26T02:54:17;99785.00;;;7.69;nan
46408;BME280;32110;45.724;21.276;2023-04-26T02:56:42;99787.03;;;7.67;nan
46408;BME280;32110;45.724;21.276;2023-04-26T02:59:08;99791.94;;;7.75;nan
46408;BME280;32110;45.724;21.276;2023-04-26T03:01:33;99793.00;;;7.74;nan
46408;BME280;32110;45.724;21.276;2023-04-26T03:03:58;99794.72;;;7.80;nan
46408;BME280;32110;45.724;21.276;2023-04-26T03:06:24;99804.78;;;7.83;nan
46408;BME280;32110;45.724;21.276;2023-04-26T03:08:49;99795.94;;;7.78;nan
46408;BME280;32110;45.724;21.276;2023-04-26T03:11:15;99793.13;;;7.79;nan
46408;BME280;32110;45.724;21.276;2023-04-26T03:13:40;99808.91;;;7.91;nan
46408;BME280;32110;45.724;21.276;2023-04-26T03:16:06;99794.88;;;7.85;nan
46408;BME280;32110;45.724;21.276;2023-04-26T03:18:31;99798.28;;;7.86;nan
46408;BME280;32110;45.724;21.276;2023-04-26T03:20:56;99818.53;;;8.09;nan
46408;BME280;32110;45.724;21.276;2023-04-26T03:23:22;99807.34;;;8.02;nan
46408;BME280;32110;45.724;21.276;2023-04-26T03:25:50;99805.28;;;8.04;nan
46408;BME280;32110;45.724;21.276;2023-04-26T03:28:15;99799.13;;;7.98;nan
46408;BME280;32110;45.724;21.276;2023-04-26T03:30:41;99813.41;;;8.02;nan
46408;BME280;32110;45.724;21.276;2023-04-26T03:33:06;99823.88;;;8.02;nan
46408;BME280;32110;45.724;21.276;2023-04-26T03:35:32;99825.03;;;8.06;nan
46408;BME280;32110;45.724;21.276;2023-04-26T03:37:57;99830.59;;;7.98;nan
46408;BME280;32110;45.724;21.276;2023-04-26T03:40:22;99818.16;;;7.94;nan
46408;BME280;32110;45.724;21.276;2023-04-26T03:42:47;99804.09;;;7.88;nan
46408;BME280;32110;45.724;21.276;2023-04-26T03:45:13;99835.63;;;8.00;nan
46408;BME280;32110;45.724;21.276;2023-04-26T03:47:38;99838.97;;;8.07;nan
46408;BME280;32110;45.724;21.276;2023-04-26T03:50:05;99843.63;;;8.05;nan
46408;BME280;32110;45.724;21.276;2023-04-26T03:52:31;99850.59;;;8.11;nan
46408;BME280;32110;45.724;21.276;2023-04-26T03:54:56;99842.59;;;8.06;nan
46408;BME280;32110;45.724;21.276;2023-04-26T03:57:22;99868.53;;;8.14;nan
46408;BME280;32110;45.724;21.276;2023-04-26T06:03:34;100009.81;;;8.78;nan
46408;BME280;32110;45.724;21.276;2023-04-26T06:20:34;100075.50;;;9.20;nan
46408;BME280;32110;45.724;21.276;2023-04-26T06:23:00;100019.44;;;8.84;nan
46408;BME280;32110;45.724;21.276;2023-04-26T06:25:25;100025.94;;;8.93;nan
46408;BME280;32110;45.724;21.276;2023-04-26T06:27:51;100018.97;;;8.87;nan
46408;BME280;32110;45.724;21.276;2023-04-26T06:30:16;100031.44;;;8.91;nan
46408;BME280;32110;45.724;21.276;2023-04-26T06:32:44;100026.06;;;8.86;nan
46408;BME280;32110;45.724;21.276;2023-04-26T06:35:10;100035.53;;;8.87;nan
46408;BME280;32110;45.724;21.276;2023-04-26T06:37:36;100020.31;;;8.78;nan
46408;BME280;32110;45.724;21.276;2023-04-26T06:40:02;100033.09;;;8.86;nan
46408;BME280;32110;45.724;21.276;2023-04-26T06:42:27;100033.47;;;8.89;nan
46408;BME280;32110;45.724;21.276;2023-04-26T06:44:53;100032.09;;;8.87;nan
46408;BME280;32110;45.724;21.276;2023-04-26T06:47:18;100021.47;;;8.82;nan
46408;BME280;32110;45.724;21.276;2023-04-26T06:49:44;100020.75;;;8.75;nan
46408;BME280;32110;45.724;21.276;2023-04-26T06:52:09;100014.91;;;8.72;nan
46408;BME280;32110;45.724;21.276;2023-04-26T06:54:35;100034.16;;;8.85;nan
46408;BME280;32110;45.724;21.276;2023-04-26T06:57:00;100033.09;;;8.86;nan
46408;BME280;32110;45.724;21.276;2023-04-26T06:59:26;100023.84;;;8.83;nan
46408;BME280;32110;45.724;21.276;2023-04-26T07:01:51;100028.44;;;8.88;nan
46408;BME280;32110;45.724;21.276;2023-04-26T07:04:17;100040.09;;;8.92;nan
46408;BME280;32110;45.724;21.276;2023-04-26T07:06:44;100041.50;;;8.94;nan
46408;BME280;32110;45.724;21.276;2023-04-26T07:09:10;100034.41;;;8.95;nan
46408;BME280;32110;45.724;21.276;2023-04-26T07:11:36;100040.91;;;8.92;nan
46408;BME280;32110;45.724;21.276;2023-04-26T07:14:03;100045.38;;;8.92;nan
46408;BME280;32110;45.724;21.276;2023-04-26T07:16:29;100052.13;;;9.00;nan
46408;BME280;32110;45.724;21.276;2023-04-26T07:18:55;100026.13;;;8.80;nan
46408;BME280;32110;45.724;21.276;2023-04-26T07:21:22;100044.06;;;8.83;nan
46408;BME280;32110;45.724;21.276;2023-04-26T07:23:52;100039.47;;;8.78;nan
46408;BME280;32110;45.724;21.276;2023-04-26T07:26:18;100021.34;;;8.58;nan
46408;BME280;32110;45.724;21.276;2023-04-26T07:28:43;100068.78;;;8.93;nan
46408;BME280;32110;45.724;21.276;2023-04-26T07:31:11;100067.53;;;8.96;nan
46408;BME280;32110;45.724;21.276;2023-04-26T07:33:36;100073.94;;;9.00;nan
46408;BME280;32110;45.724;21.276;2023-04-26T07:36:02;100065.13;;;8.94;nan
46408;BME280;32110;45.724;21.276;2023-04-26T07:38:28;100065.03;;;9.01;nan
46408;BME280;32110;45.724;21.276;2023-04-26T07:40:55;100071.47;;;9.05;nan
46408;BME280;32110;45.724;21.276;2023-04-26T07:43:21;100072.59;;;9.09;nan
46408;BME280;32110;45.724;21.276;2023-04-26T07:45:47;100063.13;;;9.08;nan
46408;BME280;32110;45.724;21.276;2023-04-26T07:48:12;100079.81;;;9.14;nan
46408;BME280;32110;45.724;21.276;2023-04-26T07:50:41;100088.91;;;9.30;nan
46408;BME280;32110;45.724;21.276;2023-04-26T07:53:06;100095.75;;;9.31;nan
46408;BME280;32110;45.724;21.276;2023-04-26T07:55:32;100076.53;;;9.19;nan
46408;BME280;32110;45.724;21.276;2023-04-26T07:57:57;100079.28;;;9.24;nan
46408;BME280;32110;45.724;21.276;2023-04-26T08:00:23;100104.72;;;9.42;nan
46408;BME280;32110;45.724;21.276;2023-04-26T08:02:48;100112.94;;;9.45;nan
46408;BME280;32110;45.724;21.276;2023-04-26T08:05:14;100113.50;;;9.47;nan
46408;BME280;32110;45.724;21.276;2023-04-26T08:07:41;100116.63;;;9.56;nan
46408;BME280;32110;45.724;21.276;2023-04-26T08:10:09;100109.53;;;9.56;nan
46408;BME280;32110;45.724;21.276;2023-04-26T08:12:36;100097.66;;;9.54;nan
46408;BME280;32110;45.724;21.276;2023-04-26T08:15:03;100111.84;;;9.65;nan
46408;BME280;32110;45.724;21.276;2023-04-26T08:17:30;100112.91;;;9.75;nan
46408;BME280;32110;45.724;21.276;2023-04-26T08:19:57;100101.09;;;9.66;nan
46408;BME280;32110;45.724;21.276;2023-04-26T08:22:22;100112.53;;;9.72;nan
46408;BME280;32110;45.724;21.276;2023-04-26T08:24:49;100115.31;;;9.77;nan
46408;BME280;32110;45.724;21.276;2023-04-26T08:27:16;100115.63;;;9.80;nan
46408;BME280;32110;45.724;21.276;2023-04-26T08:29:42;100101.59;;;9.75;nan
46408;BME280;32110;45.724;21.276;2023-04-26T08:32:07;100121.81;;;9.86;nan
46408;BME280;32110;45.724;21.276;2023-04-26T08:34:33;100094.81;;;9.79;nan
46408;BME280;32110;45.724;21.276;2023-04-26T08:36:58;100122.88;;;9.97;nan
46408;BME280;32110;45.724;21.276;2023-04-26T08:39:24;100116.44;;;9.93;nan
46408;BME280;32110;45.724;21.276;2023-04-26T08:41:52;100106.50;;;9.95;nan
46408;BME280;32110;45.724;21.276;2023-04-26T08:44:23;100123.00;;;10.14;nan
46408;BME280;32110;45.724;21.276;2023-04-26T08:52:09;100121.16;;;10.26;nan
46408;BME280;32110;45.724;21.276;2023-04-26T08:54:41;100122.91;;;10.32;nan
46408;BME280;32110;45.724;21.276;2023-04-26T08:57:09;100111.44;;;10.27;nan
46408;BME280;32110;45.724;21.276;2023-04-26T08:59:38;100132.06;;;10.41;nan
46408;BME280;32110;45.724;21.276;2023-04-26T09:02:05;100134.34;;;10.50;nan
46408;BME280;32110;45.724;21.276;2023-04-26T09:04:31;100139.13;;;10.53;nan
46408;BME280;32110;45.724;21.276;2023-04-26T09:07:01;100139.03;;;10.59;nan
46408;BME280;32110;45.724;21.276;2023-04-26T09:09:28;100131.03;;;10.54;nan
46408;BME280;32110;45.724;21.276;2023-04-26T09:11:58;100134.22;;;10.56;nan
46408;BME280;32110;45.724;21.276;2023-04-26T09:14:26;100144.06;;;10.73;nan
46408;BME280;32110;45.724;21.276;2023-04-26T09:16:52;100124.94;;;10.66;nan
46408;BME280;32110;45.724;21.276;2023-04-26T09:19:40;100149.63;;;10.88;nan
46408;BME280;32110;45.724;21.276;2023-04-26T09:22:09;100151.34;;;10.94;nan
46408;BME280;32110;45.724;21.276;2023-04-26T09:24:48;100146.59;;;10.96;nan
46408;BME280;32110;45.724;21.276;2023-04-26T09:27:15;100150.72;;;11.04;nan
46408;BME280;32110;45.724;21.276;2023-04-26T09:32:55;100146.44;;;11.15;nan
46408;BME280;32110;45.724;21.276;2023-04-26T09:38:12;100148.47;;;11.24;nan
46408;BME280;32110;45.724;21.276;2023-04-26T09:40:46;100138.50;;;11.26;nan
46408;BME280;32110;45.724;21.276;2023-04-26T09:43:21;100143.28;;;11.29;nan
46408;BME280;32110;45.724;21.276;2023-04-26T09:45:52;100137.09;;;11.36;nan
46408;BME280;32110;45.724;21.276;2023-04-26T09:48:29;100139.81;;;11.41;nan
46408;BME280;32110;45.724;21.276;2023-04-26T09:50:57;100143.91;;;11.48;nan
46408;BME280;32110;45.724;21.276;2023-04-26T09:53:36;100139.28;;;11.56;nan
46408;BME280;32110;45.724;21.276;2023-04-26T09:58:53;100135.22;;;11.65;nan
46408;BME280;32110;45.724;21.276;2023-04-26T10:01:23;100125.88;;;11.57;nan
46408;BME280;32110;45.724;21.276;2023-04-26T10:03:49;100130.09;;;11.58;nan
46408;BME280;32110;45.724;21.276;2023-04-26T10:06:18;100116.16;;;11.46;nan
46408;BME280;32110;45.724;21.276;2023-04-26T10:08:44;100117.78;;;11.47;nan
46408;BME280;32110;45.724;21.276;2023-04-26T10:11:09;100116.66;;;11.43;nan
46408;BME280;32110;45.724;21.276;2023-04-26T10:13:36;100121.59;;;11.56;nan
46408;BME280;32110;45.724;21.276;2023-04-26T10:16:03;100121.88;;;11.71;nan
46408;BME280;32110;45.724;21.276;2023-04-26T10:18:30;100124.53;;;11.71;nan
46408;BME280;32110;45.724;21.276;2023-04-26T10:20:59;100119.41;;;11.65;nan
46408;BME280;32110;45.724;21.276;2023-04-26T10:23:25;100136.03;;;11.82;nan
46408;BME280;32110;45.724;21.276;2023-04-26T10:25:52;100127.44;;;11.87;nan
46408;BME280;32110;45.724;21.276;2023-04-26T10:31:11;100129.97;;;11.99;nan
46408;BME280;32110;45.724;21.276;2023-04-26T10:33:39;100128.63;;;11.96;nan
46408;BME280;32110;45.724;21.276;2023-04-26T10:36:31;100131.69;;;11.88;nan
46408;BME280;32110;45.724;21.276;2023-04-26T10:39:17;100122.03;;;11.82;nan
46408;BME280;32110;45.724;21.276;2023-04-26T10:41:45;100113.81;;;11.78;nan
46408;BME280;32110;45.724;21.276;2023-04-26T10:44:39;100132.09;;;11.85;nan
46408;BME280;32110;45.724;21.276;2023-04-26T10:50:09;100103.28;;;11.78;nan
46408;BME280;32110;45.724;21.276;2023-04-26T10:55:39;100103.91;;;11.85;nan
46408;BME280;32110;45.724;21.276;2023-04-26T10:58:25;100108.56;;;11.95;nan
46408;BME280;32110;45.724;21.276;2023-04-26T11:03:32;100127.91;;;12.01;nan
46408;BME280;32110;45.724;21.276;2023-04-26T11:05:58;100118.56;;;11.93;nan
46408;BME280;32110;45.724;21.276;2023-04-26T11:08:30;100123.69;;;12.00;nan
46408;BME280;32110;45.724;21.276;2023-04-26T11:13:31;100138.44;;;11.84;nan
46408;BME280;32110;45.724;21.276;2023-04-26T11:16:01;100116.53;;;11.66;nan
46408;BME280;32110;45.724;21.276;2023-04-26T11:18:28;100117.47;;;11.60;nan
46408;BME280;32110;45.724;21.276;2023-04-26T11:20:54;100128.88;;;11.66;nan
46408;BME280;32110;45.724;21.276;2023-04-26T11:23:19;100133.16;;;11.67;nan
46408;BME280;32110;45.724;21.276;2023-04-26T11:25:46;100117.88;;;11.69;nan
46408;BME280;32110;45.724;21.276;2023-04-26T11:28:12;100133.66;;;11.81;nan
46408;BME280;32110;45.724;21.276;2023-04-26T11:30:38;100131.09;;;11.86;nan
46408;BME280;32110;45.724;21.276;2023-04-26T11:33:03;100115.19;;;11.81;nan
46408;BME280;32110;45.724;21.276;2023-04-26T11:35:32;100127.13;;;12.00;nan
46408;BME280;32110;45.724;21.276;2023-04-26T11:37:58;100115.34;;;11.91;nan
46408;BME280;32110;45.724;21.276;2023-04-26T11:40:28;100120.06;;;12.06;nan
46408;BME280;32110;45.724;21.276;2023-04-26T11:42:58;100110.06;;;12.08;nan
46408;BME280;32110;45.724;21.276;2023-04-26T11:45:23;100122.44;;;12.24;nan
46408;BME280;32110;45.724;21.276;2023-04-26T11:47:49;100120.28;;;12.38;nan
46408;BME280;32110;45.724;21.276;2023-04-26T11:50:15;100101.47;;;12.34;nan
46408;BME280;32110;45.724;21.276;2023-04-26T11:52:44;100106.47;;;12.53;nan
46408;BME280;32110;45.724;21.276;2023-04-26T11:55:12;100125.69;;;12.70;nan
46408;BME280;32110;45.724;21.276;2023-04-26T11:57:38;100120.13;;;12.67;nan
46408;BME280;32110;45.724;21.276;2023-04-26T12:00:12;100102.41;;;12.67;nan
46408;BME280;32110;45.724;21.276;2023-04-26T12:02:44;100119.38;;;12.93;nan
46408;BME280;32110;45.724;21.276;2023-04-26T12:05:23;100118.91;;;13.02;nan
46408;BME280;32110;45.724;21.276;2023-04-26T12:07:52;100098.34;;;13.04;nan
46408;BME280;32110;45.724;21.276;2023-04-26T12:10:24;100099.50;;;13.13;nan
46408;BME280;32110;45.724;21.276;2023-04-26T12:12:51;100100.94;;;13.26;nan
46408;BME280;32110;45.724;21.276;2023-04-26T12:15:18;100099.00;;;13.43;nan
46408;BME280;32110;45.724;21.276;2023-04-26T12:18:06;100101.78;;;13.58;nan
46408;BME280;32110;45.724;21.276;2023-04-26T12:20:33;100100.56;;;13.71;nan
46408;BME280;32110;45.724;21.276;2023-04-26T12:23:03;100101.16;;;13.78;nan
46408;BME280;32110;45.724;21.276;2023-04-26T12:25:29;100101.66;;;13.75;nan
46408;BME280;32110;45.724;21.276;2023-04-26T12:27:55;100103.75;;;13.73;nan
46408;BME280;32110;45.724;21.276;2023-04-26T12:30:21;100088.81;;;13.57;nan
46408;BME280;32110;45.724;21.276;2023-04-26T12:32:47;100088.81;;;13.57;nan
46408;BME280;32110;45.724;21.276;2023-04-26T12:35:12;100090.97;;;13.60;nan
46408;BME280;32110;45.724;21.276;2023-04-26T12:37:38;100095.13;;;13.51;nan
46408;BME280;32110;45.724;21.276;2023-04-26T12:40:03;100102.03;;;13.57;nan
46408;BME280;32110;45.724;21.276;2023-04-26T12:42:31;100103.41;;;13.65;nan
46408;BME280;32110;45.724;21.276;2023-04-26T12:44:56;100102.63;;;13.64;nan
46408;BME280;32110;45.724;21.276;2023-04-26T12:47:21;100105.22;;;13.59;nan
46408;BME280;32110;45.724;21.276;2023-04-26T12:49:47;100098.09;;;13.59;nan
46408;BME280;32110;45.724;21.276;2023-04-26T12:52:12;100114.50;;;13.61;nan
46408;BME280;32110;45.724;21.276;2023-04-26T12:54:37;100100.53;;;13.66;nan
46408;BME280;32110;45.724;21.276;2023-04-26T12:57:04;100108.81;;;13.75;nan
46408;BME280;32110;45.724;21.276;2023-04-26T12:59:30;100096.84;;;13.67;nan
46408;BME280;32110;45.724;21.276;2023-04-26T13:01:55;100090.75;;;13.67;nan
46408;BME280;32110;45.724;21.276;2023-04-26T13:04:21;100095.06;;;13.78;nan
46408;BME280;32110;45.724;21.276;2023-04-26T13:06:46;100090.91;;;13.87;nan
46408;BME280;32110;45.724;21.276;2023-04-26T13:09:11;100103.97;;;14.04;nan
46408;BME280;32110;45.724;21.276;2023-04-26T13:11:38;100104.00;;;14.09;nan
46408;BME280;32110;45.724;21.276;2023-04-26T13:14:04;100086.75;;;14.01;nan
46408;BME280;32110;45.724;21.276;2023-04-26T13:16:32;100099.28;;;14.16;nan
46408;BME280;32110;45.724;21.276;2023-04-26T13:18:57;100095.31;;;14.14;nan
46408;BME280;32110;45.724;21.276;2023-04-26T13:21:23;100104.09;;;14.24;nan
46408;BME280;32110;45.724;21.276;2023-04-26T13:23:48;100095.66;;;14.28;nan
46408;BME280;32110;45.724;21.276;2023-04-26T13:26:13;100102.53;;;14.29;nan
46408;BME280;32110;45.724;21.276;2023-04-26T13:28:41;100088.19;;;14.19;nan
46408;BME280;32110;45.724;21.276;2023-04-26T13:31:07;100094.63;;;14.39;nan
46408;BME280;32110;45.724;21.276;2023-04-26T13:33:32;100089.66;;;14.47;nan
46408;BME280;32110;45.724;21.276;2023-04-26T13:35:57;100095.75;;;14.53;nan
46408;BME280;32110;45.724;21.276;2023-04-26T13:38:24;100100.72;;;14.34;nan
46408;BME280;32110;45.724;21.276;2023-04-26T13:40:50;100097.75;;;14.25;nan
46408;BME280;32110;45.724;21.276;2023-04-26T13:43:16;100100.66;;;14.24;nan
46408;BME280;32110;45.724;21.276;2023-04-26T13:45:41;100093.75;;;14.18;nan
46408;BME280;32110;45.724;21.276;2023-04-26T13:48:07;100099.25;;;14.06;nan
46408;BME280;32110;45.724;21.276;2023-04-26T13:50:34;100081.13;;;13.93;nan
46408;BME280;32110;45.724;21.276;2023-04-26T13:53:00;100098.66;;;13.99;nan
46408;BME280;32110;45.724;21.276;2023-04-26T13:55:25;100095.28;;;14.09;nan
46408;BME280;32110;45.724;21.276;2023-04-26T13:57:51;100101.16;;;14.16;nan
46408;BME280;32110;45.724;21.276;2023-04-26T14:00:17;100088.69;;;14.16;nan
46408;BME280;32110;45.724;21.276;2023-04-26T14:02:42;100107.97;;;14.07;nan
46408;BME280;32110;45.724;21.276;2023-04-26T14:05:08;100107.75;;;13.76;nan
46408;BME280;32110;45.724;21.276;2023-04-26T14:07:33;100099.53;;;13.72;nan
46408;BME280;32110;45.724;21.276;2023-04-26T14:09:59;100123.19;;;13.84;nan
46408;BME280;32110;45.724;21.276;2023-04-26T14:12:25;100120.22;;;13.80;nan
46408;BME280;32110;45.724;21.276;2023-04-26T14:14:50;100110.41;;;13.76;nan
46408;BME280;32110;45.724;21.276;2023-04-26T14:17:15;100111.19;;;13.76;nan
46408;BME280;32110;45.724;21.276;2023-04-26T14:19:41;100104.78;;;13.67;nan
46408;BME280;32110;45.724;21.276;2023-04-26T14:22:07;100120.16;;;13.70;nan
46408;BME280;32110;45.724;21.276;2023-04-26T14:24:36;100120.47;;;13.79;nan
46408;BME280;32110;45.724;21.276;2023-04-26T14:27:01;100115.69;;;13.76;nan
46408;BME280;32110;45.724;21.276;2023-04-26T14:29:27;100123.69;;;13.86;nan
46408;BME280;32110;45.724;21.276;2023-04-26T14:31:52;100111.84;;;13.89;nan
46408;BME280;32110;45.724;21.276;2023-04-26T14:34:18;100072.91;;;13.52;nan
46408;BME280;32110;45.724;21.276;2023-04-26T14:36:43;100114.19;;;13.85;nan
46408;BME280;32110;45.724;21.276;2023-04-26T14:39:08;100125.75;;;13.79;nan
46408;BME280;32110;45.724;21.276;2023-04-26T14:41:34;100125.41;;;13.65;nan
46408;BME280;32110;45.724;21.276;2023-04-26T14:43:59;100133.75;;;13.52;nan
46408;BME280;32110;45.724;21.276;2023-04-26T14:46:25;100114.91;;;13.21;nan
46408;BME280;32110;45.724;21.276;2023-04-26T15:30:06;100207.03;;;12.68;nan
46408;BME280;32110;45.724;21.276;2023-04-26T18:27:28;100366.38;;;10.23;nan
46408;BME280;32110;45.724;21.276;2023-04-26T20:38:51;100453.31;;;9.04;nan
